createdAt,value
2019-06-26T00:01:15.397Z,101837.50
2019-06-26T00:03:47.702Z,101835.66
2019-06-26T00:06:20.284Z,101838.84
2019-06-26T00:08:52.866Z,101841.52
2019-06-26T00:11:25.583Z,101836.48
2019-06-26T00:13:58.544Z,101835.22
2019-06-26T00:16:30.868Z,101834.98
2019-06-26T00:19:03.182Z,101837.93
2019-06-26T00:21:35.794Z,101833.75
2019-06-26T00:24:08.102Z,101832.13
2019-06-26T00:26:40.912Z,101833.91
2019-06-26T00:29:14.326Z,101829.98
2019-06-26T00:31:46.683Z,101829.37
2019-06-26T00:34:19.342Z,101825.02
2019-06-26T00:36:51.655Z,101820.07
2019-06-26T00:39:24.302Z,101822.96
2019-06-26T00:41:57.166Z,101824.02
2019-06-26T00:44:30.152Z,101824.70
2019-06-26T00:47:02.487Z,101819.70
2019-06-26T00:49:34.867Z,101821.84
2019-06-26T00:52:07.116Z,101821.64
2019-06-26T00:54:39.753Z,101815.21
2019-06-26T00:57:12.430Z,101820.98
2019-06-26T00:59:45.060Z,101816.53
2019-06-26T01:02:17.411Z,101813.88
2019-06-26T01:04:51.425Z,101807.36
2019-06-26T01:07:23.850Z,101809.84
2019-06-26T01:09:56.164Z,101802.46
2019-06-26T01:12:28.491Z,101796.78
2019-06-26T01:15:01.173Z,101788.30
2019-06-26T01:17:34.404Z,101783.09
2019-06-26T01:20:07.595Z,101785.13
2019-06-26T01:22:41.024Z,101787.20
2019-06-26T01:25:13.588Z,101783.80
2019-06-26T01:27:46.271Z,101780.05
2019-06-26T01:30:19.358Z,101783.27
2019-06-26T01:32:52.075Z,101785.41
2019-06-26T01:35:24.465Z,101786.17
2019-06-26T01:37:57.036Z,101787.44
2019-06-26T01:40:29.699Z,101789.83
2019-06-26T01:43:02.171Z,101792.38
2019-06-26T01:45:34.555Z,101789.55
2019-06-26T01:48:06.971Z,101787.33
2019-06-26T01:50:39.877Z,101790.05
2019-06-26T01:53:12.237Z,101787.50
2019-06-26T01:55:45.302Z,101785.62
2019-06-26T01:58:17.928Z,101783.67
2019-06-26T02:00:50.201Z,101788.55
2019-06-26T02:03:22.882Z,101785.41
2019-06-26T02:05:55.446Z,101783.42
2019-06-26T02:08:28.944Z,101779.08
2019-06-26T02:11:01.221Z,101786.72
2019-06-26T02:13:33.600Z,101780.79
2019-06-26T02:16:06.504Z,101783.05
2019-06-26T02:18:46.446Z,101781.12
2019-06-26T02:21:18.722Z,101783.63
2019-06-26T02:23:51.045Z,101786.58
2019-06-26T02:26:23.423Z,101783.63
2019-06-26T02:28:56.022Z,101779.50
2019-06-26T02:31:28.593Z,101786.64
2019-06-26T02:34:02.417Z,101780.75
2019-06-26T02:36:34.688Z,101788.88
2019-06-26T02:39:08.536Z,101784.77
2019-06-26T02:41:40.820Z,101785.47
2019-06-26T02:44:13.119Z,101787.49
2019-06-26T02:46:45.682Z,101784.98
2019-06-26T02:49:18.066Z,101786.07
2019-06-26T02:51:50.346Z,101791.25
2019-06-26T02:54:22.703Z,101791.66
2019-06-26T02:56:55.108Z,101795.96
2019-06-26T02:59:28.588Z,101795.59
2019-06-26T03:02:00.896Z,101792.20
2019-06-26T03:04:33.537Z,101799.95
2019-06-26T03:07:05.800Z,101807.17
2019-06-26T03:09:38.209Z,101805.50
2019-06-26T03:12:10.841Z,101804.21
2019-06-26T03:14:43.272Z,101803.25
2019-06-26T03:17:16.185Z,101805.55
2019-06-26T03:19:48.536Z,101807.55
2019-06-26T03:22:20.822Z,101809.97
2019-06-26T03:24:53.827Z,101813.01
2019-06-26T03:27:26.296Z,101814.13
2019-06-26T03:29:59.092Z,101815.97
2019-06-26T03:32:31.380Z,101814.18
2019-06-26T03:35:05.036Z,101821.06
2019-06-26T03:37:37.948Z,101820.66
2019-06-26T03:40:10.881Z,101824.16
2019-06-26T03:42:43.462Z,101820.62
2019-06-26T03:45:25.725Z,101824.16
2019-06-26T03:47:50.557Z,101828.38
2019-06-26T03:50:22.955Z,101822.98
2019-06-26T03:52:55.302Z,101826.62
2019-06-26T03:55:28.776Z,101827.37
2019-06-26T03:58:03.574Z,101827.73
2019-06-26T04:00:43.112Z,101831.91
2019-06-26T04:03:15.460Z,101834.19
2019-06-26T04:05:47.830Z,101831.59
2019-06-26T04:08:20.456Z,101832.94
2019-06-26T04:10:52.801Z,101829.72
2019-06-26T04:13:25.082Z,101833.39
2019-06-26T04:15:57.440Z,101833.09
2019-06-26T04:18:29.723Z,101830.26
2019-06-26T04:21:02.440Z,101833.59
2019-06-26T04:23:35.043Z,101837.13
2019-06-26T04:26:07.369Z,101833.61
2019-06-26T04:28:39.664Z,101834.98
2019-06-26T04:31:11.981Z,101833.86
2019-06-26T04:33:44.939Z,101830.25
2019-06-26T04:36:17.616Z,101832.34
2019-06-26T04:38:50.596Z,101833.42
2019-06-26T04:41:24.095Z,101833.41
2019-06-26T04:43:57.128Z,101833.68
2019-06-26T04:46:29.581Z,101840.05
2019-06-26T04:49:01.855Z,101843.25
2019-06-26T04:51:34.260Z,101838.49
2019-06-26T04:54:06.694Z,101843.88
2019-06-26T04:56:42.454Z,101846.73
2019-06-26T04:59:14.800Z,101845.86
2019-06-26T05:01:47.104Z,101846.05
2019-06-26T05:04:37.805Z,101851.31
2019-06-26T05:07:14.672Z,101854.69
2019-06-26T05:09:47.053Z,101853.96
2019-06-26T05:12:20.044Z,101861.22
2019-06-26T05:14:55.230Z,101862.09
2019-06-26T05:17:27.619Z,101860.77
2019-06-26T05:20:00.127Z,101862.16
2019-06-26T05:22:32.618Z,101863.67
2019-06-26T05:25:05.486Z,101867.77
2019-06-26T05:27:37.828Z,101872.23
2019-06-26T05:30:12.492Z,101874.08
2019-06-26T05:32:45.236Z,101878.81
2019-06-26T05:35:18.477Z,101875.45
2019-06-26T05:37:51.145Z,101877.81
2019-06-26T05:40:23.783Z,101881.27
2019-06-26T05:42:56.139Z,101875.08
2019-06-26T05:45:29.795Z,101884.72
2019-06-26T05:48:02.906Z,101885.19
2019-06-26T05:50:35.573Z,101890.34
2019-06-26T05:53:07.843Z,101895.78
2019-06-26T05:55:40.256Z,101901.27
2019-06-26T05:58:12.535Z,101902.09
2019-06-26T06:00:45.688Z,101915.27
2019-06-26T06:03:18.058Z,101918.22
2019-06-26T06:05:50.854Z,101920.76
2019-06-26T06:08:23.315Z,101922.03
2019-06-26T06:10:58.165Z,101918.84
2019-06-26T06:13:30.130Z,101925.73
2019-06-26T06:16:06.217Z,101929.80
2019-06-26T06:18:36.538Z,101927.34
2019-06-26T06:21:09.384Z,101929.17
2019-06-26T06:23:41.679Z,101943.74
2019-06-26T06:26:14.015Z,101942.41
2019-06-26T06:28:46.307Z,101950.78
2019-06-26T06:31:18.649Z,101950.48
2019-06-26T06:33:50.979Z,101947.35
2019-06-26T06:36:23.323Z,101949.23
2019-06-26T06:38:55.650Z,101953.81
2019-06-26T06:41:28.025Z,101959.53
2019-06-26T06:44:00.299Z,101965.98
2019-06-26T06:46:32.758Z,101968.55
2019-06-26T06:49:05.381Z,101980.86
2019-06-26T06:51:38.113Z,101981.30
2019-06-26T06:54:10.805Z,101987.31
2019-06-26T06:56:43.308Z,101990.20
2019-06-26T06:59:16.120Z,101986.81
2019-06-26T07:01:48.662Z,101983.97
2019-06-26T07:04:21.303Z,101989.08
2019-06-26T07:06:53.980Z,101984.43
2019-06-26T07:09:26.975Z,101982.62
2019-06-26T07:11:59.857Z,101985.27
2019-06-26T07:14:32.131Z,101986.94
2019-06-26T07:17:19.451Z,101996.52
2019-06-26T07:19:40.576Z,101993.91
2019-06-26T07:22:12.923Z,102002.94
2019-06-26T07:24:45.222Z,101999.92
2019-06-26T07:27:17.889Z,102003.97
2019-06-26T07:29:50.320Z,102000.59
2019-06-26T07:32:22.629Z,101995.93
2019-06-26T07:34:55.360Z,102003.41
2019-06-26T07:37:27.616Z,102007.33
2019-06-26T07:40:02.038Z,102004.64
2019-06-26T07:42:34.705Z,102006.55
2019-06-26T07:45:08.244Z,102011.09
2019-06-26T07:47:43.481Z,102018.32
2019-06-26T07:50:15.246Z,102014.83
2019-06-26T07:52:47.524Z,102012.31
2019-06-26T07:55:20.149Z,102024.38
2019-06-26T07:57:52.442Z,102026.52
2019-06-26T08:00:25.965Z,102024.88
2019-06-26T08:02:58.289Z,102028.15
2019-06-26T08:05:30.827Z,102026.14
2019-06-26T08:08:03.462Z,102031.80
2019-06-26T08:10:36.635Z,102030.99
2019-06-26T08:13:09.620Z,102033.45
2019-06-26T08:15:42.340Z,102049.83
2019-06-26T08:18:14.671Z,102040.09
2019-06-26T08:21:00.718Z,102039.44
2019-06-26T08:23:21.617Z,102039.44
2019-06-26T08:25:53.903Z,102041.04
2019-06-26T08:28:27.367Z,102045.05
2019-06-26T08:31:00.504Z,102039.28
2019-06-26T08:33:32.858Z,102030.87
2019-06-26T08:36:05.125Z,102042.88
2019-06-26T08:38:37.475Z,102039.71
2019-06-26T08:41:10.400Z,102047.48
2019-06-26T08:43:43.093Z,102059.42
2019-06-26T08:46:16.080Z,102063.34
2019-06-26T08:48:51.958Z,102065.09
2019-06-26T08:51:23.912Z,102069.02
2019-06-26T08:53:56.232Z,102072.30
2019-06-26T08:56:28.625Z,102076.47
2019-06-26T08:59:01.073Z,102078.95
2019-06-26T09:01:33.665Z,102084.11
2019-06-26T09:04:06.032Z,102084.84
2019-06-26T09:06:38.379Z,102084.59
2019-06-26T09:09:10.779Z,102083.83
2019-06-26T09:11:43.289Z,102088.63
2019-06-26T09:14:16.820Z,102105.05
2019-06-26T09:16:50.327Z,102104.23
2019-06-26T09:19:22.936Z,102106.54
2019-06-26T09:21:55.306Z,102103.77
2019-06-26T09:24:27.849Z,102108.70
2019-06-26T09:27:00.272Z,102113.47
2019-06-26T09:29:32.642Z,102122.51
2019-06-26T09:32:05.315Z,102124.13
2019-06-26T09:34:37.699Z,102120.56
2019-06-26T09:37:10.364Z,102127.97
2019-06-26T09:39:42.764Z,102127.11
2019-06-26T09:42:19.162Z,102140.70
2019-06-26T09:44:49.162Z,102144.11
2019-06-26T09:47:22.254Z,102146.10
2019-06-26T09:49:54.803Z,102147.88
2019-06-26T09:52:27.184Z,102146.09
2019-06-26T09:55:00.738Z,102151.87
2019-06-26T09:57:33.357Z,102161.41
2019-06-26T10:00:06.597Z,102159.48
2019-06-26T10:02:39.761Z,102162.60
2019-06-26T10:05:12.868Z,102171.71
2019-06-26T10:07:45.497Z,102168.30
2019-06-26T10:10:19.295Z,102176.22
2019-06-26T10:12:51.678Z,102183.83
2019-06-26T10:15:24.189Z,102186.27
2019-06-26T10:17:56.580Z,102195.22
2019-06-26T10:20:29.007Z,102199.42
2019-06-26T10:23:02.433Z,102188.00
2019-06-26T10:25:34.751Z,102185.33
2019-06-26T10:28:07.194Z,102195.79
2019-06-26T10:30:39.799Z,102203.69
2019-06-26T10:33:12.115Z,102200.14
2019-06-26T10:35:44.855Z,102203.37
2019-06-26T10:38:17.304Z,102219.38
2019-06-26T10:40:49.573Z,102217.27
2019-06-26T10:43:21.963Z,102228.09
2019-06-26T10:45:54.975Z,102219.94
2019-06-26T10:48:27.370Z,102225.92
2019-06-26T10:51:00.545Z,102227.87
2019-06-26T10:53:34.513Z,102228.98
2019-06-26T10:56:06.833Z,102219.53
2019-06-26T10:58:39.822Z,102222.95
2019-06-26T11:01:12.464Z,102225.06
2019-06-26T11:03:44.856Z,102227.66
2019-06-26T11:06:17.223Z,102226.17
2019-06-26T11:08:49.578Z,102221.38
2019-06-26T11:11:21.948Z,102229.92
2019-06-26T11:13:54.581Z,102230.75
2019-06-26T11:16:28.234Z,102224.44
2019-06-26T11:19:00.597Z,102224.21
2019-06-26T11:21:32.893Z,102236.97
2019-06-26T11:24:06.456Z,102235.94
2019-06-26T11:26:39.521Z,102234.30
2019-06-26T11:29:11.900Z,102240.63
2019-06-26T11:31:44.197Z,102246.73
2019-06-26T11:34:16.845Z,102252.61
2019-06-26T11:37:03.239Z,102255.48
2019-06-26T11:39:24.435Z,102257.72
2019-06-26T11:41:57.469Z,102248.50
2019-06-26T11:44:30.994Z,102257.46
2019-06-26T11:47:04.439Z,102271.61
2019-06-26T11:49:37.153Z,102273.73
2019-06-26T11:52:10.371Z,102278.88
2019-06-26T11:54:42.681Z,102283.97
2019-06-26T11:57:15.714Z,102275.95
2019-06-26T11:59:48.742Z,102287.13
2019-06-26T12:02:21.016Z,102292.77
2019-06-26T12:04:53.447Z,102289.92
2019-06-26T12:07:25.742Z,102288.95
2019-06-26T12:09:59.094Z,102297.28
2019-06-26T12:12:32.201Z,102302.05
2019-06-26T12:15:05.795Z,102304.13
2019-06-26T12:17:38.112Z,102299.59
2019-06-26T12:20:19.345Z,102309.53
2019-06-26T12:22:47.029Z,102313.37
2019-06-26T12:25:19.406Z,102314.48
2019-06-26T12:27:52.083Z,102311.37
2019-06-26T12:30:24.747Z,102315.19
2019-06-26T12:33:03.261Z,102312.29
2019-06-26T12:35:32.241Z,102305.89
2019-06-26T12:38:04.602Z,102303.66
2019-06-26T12:40:36.911Z,102311.30
2019-06-26T12:43:09.277Z,102319.65
2019-06-26T12:45:41.708Z,102322.68
2019-06-26T12:48:16.240Z,102320.27
2019-06-26T12:50:48.054Z,102324.89
2019-06-26T12:53:20.773Z,102314.92
2019-06-26T12:55:53.139Z,102314.26
2019-06-26T12:58:25.592Z,102325.61
2019-06-26T13:00:58.197Z,102313.05
2019-06-26T13:03:31.771Z,102315.13
2019-06-26T13:06:04.175Z,102326.65
2019-06-26T13:08:37.255Z,102317.41
2019-06-26T13:11:09.565Z,102311.34
2019-06-26T13:13:42.050Z,102314.23
2019-06-26T13:16:14.511Z,102313.88
2019-06-26T13:18:46.789Z,102307.54
2019-06-26T13:21:20.114Z,102309.80
2019-06-26T13:23:52.718Z,102322.61
2019-06-26T13:26:25.968Z,102333.69
2019-06-26T13:28:58.691Z,102339.23
2019-06-26T13:31:31.539Z,102342.36
2019-06-26T13:34:03.834Z,102345.87
2019-06-26T13:36:36.294Z,102353.20
2019-06-26T13:39:08.641Z,102351.55
2019-06-26T13:41:40.965Z,102359.36
2019-06-26T13:44:13.282Z,102354.09
2019-06-26T13:46:46.729Z,102351.72
2019-06-26T13:49:19.633Z,102341.76
2019-06-26T13:51:52.382Z,102329.63
2019-06-26T13:54:24.779Z,102338.56
2019-06-26T13:56:57.229Z,102345.94
2019-06-26T13:59:29.582Z,102366.92
2019-06-26T14:02:01.884Z,102362.88
2019-06-26T14:04:34.235Z,102363.08
2019-06-26T14:07:08.579Z,102370.52
2019-06-26T14:09:41.634Z,102369.15
2019-06-26T14:12:18.942Z,102373.90
2019-06-26T14:14:57.242Z,102375.84
2019-06-26T14:17:23.049Z,102378.42
2019-06-26T14:19:55.632Z,102382.75
2019-06-26T14:22:28.044Z,102386.89
2019-06-26T14:25:01.499Z,102385.45
2019-06-26T14:27:34.229Z,102396.48
2019-06-26T14:30:08.128Z,102395.97
2019-06-26T14:32:40.911Z,102406.81
2019-06-26T14:35:14.060Z,102407.35
2019-06-26T14:37:46.657Z,102398.19
2019-06-26T14:40:20.948Z,102393.73
2019-06-26T14:42:53.639Z,102390.28
2019-06-26T14:45:26.924Z,102390.06
2019-06-26T14:48:01.842Z,102393.80
2019-06-26T14:50:34.121Z,102385.61
2019-06-26T14:53:06.474Z,102389.70
2019-06-26T14:55:38.769Z,102395.53
2019-06-26T14:58:11.436Z,102398.95
2019-06-26T15:00:43.781Z,102400.25
2019-06-26T15:03:16.391Z,102411.20
2019-06-26T15:05:48.671Z,102418.28
2019-06-26T15:08:21.295Z,102409.92
2019-06-26T15:10:53.659Z,102410.05
2019-06-26T15:13:26.322Z,102418.97
2019-06-26T15:15:58.611Z,102423.23
2019-06-26T15:18:31.928Z,102429.63
2019-06-26T15:21:04.216Z,102424.13
2019-06-26T15:23:37.232Z,102424.98
2019-06-26T15:26:09.549Z,102425.06
2019-06-26T15:28:42.367Z,102421.33
2019-06-26T15:31:15.424Z,102426.19
2019-06-26T15:33:47.753Z,102429.86
2019-06-26T15:36:20.575Z,102434.59
2019-06-26T15:38:54.818Z,102421.77
2019-06-26T15:41:27.786Z,102422.28
2019-06-26T15:44:00.418Z,102426.69
2019-06-26T15:46:33.067Z,102438.94
2019-06-26T15:49:05.465Z,102453.73
2019-06-26T15:51:38.099Z,102444.95
2019-06-26T15:54:11.343Z,102441.83
2019-06-26T15:56:43.866Z,102449.36
2019-06-26T15:59:16.380Z,102444.74
2019-06-26T16:01:48.664Z,102441.64
2019-06-26T16:04:21.325Z,102442.91
2019-06-26T16:06:54.754Z,102444.39
2019-06-26T16:09:27.156Z,102449.52
2019-06-26T16:11:59.494Z,102451.94
2019-06-26T16:14:32.339Z,102465.17
2019-06-26T16:17:10.014Z,102468.92
2019-06-26T16:19:42.336Z,102470.67
2019-06-26T16:22:30.609Z,102467.41
2019-06-26T16:24:51.035Z,102462.72
2019-06-26T16:27:23.361Z,102464.88
2019-06-26T16:29:55.698Z,102466.75
2019-06-26T16:32:28.310Z,102467.45
2019-06-26T16:35:01.867Z,102458.95
2019-06-26T16:37:34.234Z,102465.81
2019-06-26T16:40:06.781Z,102460.47
2019-06-26T16:42:39.845Z,102472.95
2019-06-26T16:45:12.213Z,102471.67
2019-06-26T16:47:44.662Z,102472.42
2019-06-26T16:50:21.346Z,102467.25
2019-06-26T16:52:54.008Z,102469.55
2019-06-26T16:55:26.729Z,102481.02
2019-06-26T16:57:58.995Z,102479.31
2019-06-26T17:00:32.496Z,102478.58
2019-06-26T17:03:06.427Z,102470.73
2019-06-26T17:05:39.317Z,102473.86
2019-06-26T17:08:11.670Z,102466.95
2019-06-26T17:10:44.310Z,102474.56
2019-06-26T17:13:16.621Z,102476.12
2019-06-26T17:15:49.875Z,102470.12
2019-06-26T17:18:23.101Z,102478.69
2019-06-26T17:20:58.544Z,102473.52
2019-06-26T17:23:32.375Z,102483.05
2019-06-26T17:26:04.790Z,102482.98
2019-06-26T17:28:37.060Z,102482.17
2019-06-26T17:31:09.981Z,102476.11
2019-06-26T17:33:43.230Z,102484.85
2019-06-26T17:36:15.564Z,102489.52
2019-06-26T17:38:47.812Z,102488.41
2019-06-26T17:41:20.715Z,102480.80
2019-06-26T17:43:53.302Z,102481.28
2019-06-26T17:46:25.927Z,102487.63
2019-06-26T17:48:58.205Z,102481.20
2019-06-26T17:51:30.524Z,102480.78
2019-06-26T17:54:03.153Z,102482.16
2019-06-26T17:56:36.174Z,102484.45
2019-06-26T17:59:08.928Z,102482.30
2019-06-26T18:01:41.918Z,102481.27
2019-06-26T18:04:14.271Z,102484.84
2019-06-26T18:06:46.673Z,102491.97
2019-06-26T18:09:19.240Z,102492.39
2019-06-26T18:11:51.671Z,102488.32
2019-06-26T18:14:24.050Z,102501.58
2019-06-26T18:16:56.759Z,102503.72
2019-06-26T18:19:29.339Z,102507.91
2019-06-26T18:22:02.264Z,102509.61
2019-06-26T18:24:35.193Z,102508.06
2019-06-26T18:27:07.871Z,102514.87
2019-06-26T18:29:41.351Z,102519.00
2019-06-26T18:32:14.921Z,102517.02
2019-06-26T18:34:48.105Z,102514.54
2019-06-26T18:37:20.866Z,102516.78
2019-06-26T18:39:53.453Z,102516.92
2019-06-26T18:42:26.885Z,102514.22
2019-06-26T18:44:59.888Z,102510.28
2019-06-26T18:47:32.963Z,102518.00
2019-06-26T18:50:06.239Z,102512.61
2019-06-26T18:52:38.865Z,102519.62
2019-06-26T18:55:11.632Z,102518.98
2019-06-26T18:57:44.267Z,102519.45
2019-06-26T19:00:17.553Z,102509.69
2019-06-26T19:02:50.321Z,102511.22
2019-06-26T19:05:22.948Z,102512.73
2019-06-26T19:07:55.627Z,102519.98
2019-06-26T19:10:30.983Z,102532.03
2019-06-26T19:13:03.664Z,102538.66
2019-06-26T19:15:36.657Z,102535.00
2019-06-26T19:18:09.321Z,102540.98
2019-06-26T19:20:42.658Z,102541.50
2019-06-26T19:23:16.440Z,102542.67
2019-06-26T19:25:48.959Z,102536.18
2019-06-26T19:28:23.211Z,102539.82
2019-06-26T19:30:56.257Z,102539.56
2019-06-26T19:33:29.053Z,102547.53
2019-06-26T19:36:02.833Z,102552.77
2019-06-26T19:38:35.562Z,102549.20
2019-06-26T19:41:08.802Z,102556.34
2019-06-26T19:43:43.129Z,102560.94
2019-06-26T19:46:16.489Z,102556.23
2019-06-26T19:48:49.901Z,102555.66
2019-06-26T19:51:22.963Z,102555.33
2019-06-26T19:54:06.878Z,102554.03
2019-06-26T19:56:41.074Z,102555.22
2019-06-26T19:59:14.145Z,102561.81
2019-06-26T20:01:51.146Z,102564.17
2019-06-26T20:04:21.999Z,102573.09
2019-06-26T20:06:54.636Z,102568.89
2019-06-26T20:09:27.235Z,102570.91
2019-06-26T20:11:59.614Z,102567.77
2019-06-26T20:14:33.655Z,102567.53
2019-06-26T20:17:06.326Z,102576.83
2019-06-26T20:19:39.415Z,102580.78
2019-06-26T20:22:12.660Z,102573.53
2019-06-26T20:24:46.083Z,102582.50
2019-06-26T20:27:18.641Z,102577.10
2019-06-26T20:29:51.904Z,102586.44
2019-06-26T20:32:24.637Z,102588.45
2019-06-26T20:34:56.998Z,102588.35
2019-06-26T20:37:29.322Z,102586.02
2019-06-26T20:40:03.146Z,102579.73
2019-06-26T20:42:35.961Z,102582.42
2019-06-26T20:45:10.136Z,102586.02
2019-06-26T20:47:43.705Z,102583.19
2019-06-26T20:50:17.535Z,102588.53
2019-06-26T20:52:50.191Z,102586.55
2019-06-26T20:55:22.841Z,102592.63
2019-06-26T20:57:55.620Z,102595.55
2019-06-26T21:00:28.691Z,102596.93
2019-06-26T21:03:01.440Z,102595.64
2019-06-26T21:05:34.012Z,102595.71
2019-06-26T21:08:06.915Z,102593.98
2019-06-26T21:10:39.255Z,102601.34
2019-06-26T21:13:13.060Z,102598.94
2019-06-26T21:15:45.334Z,102597.19
2019-06-26T21:18:18.253Z,102589.70
2019-06-26T21:20:50.650Z,102588.44
2019-06-26T21:23:23.669Z,102591.52
2019-06-26T21:25:56.340Z,102604.55
2019-06-26T21:28:29.084Z,102596.44
2019-06-26T21:31:01.466Z,102605.50
2019-06-26T21:33:34.176Z,102596.97
2019-06-26T21:36:07.066Z,102600.75
2019-06-26T21:38:40.258Z,102596.47
2019-06-26T21:41:12.807Z,102603.75
2019-06-26T21:43:45.175Z,102597.27
2019-06-26T21:46:18.585Z,102611.75
2019-06-26T21:48:51.475Z,102609.42
2019-06-26T21:51:24.167Z,102606.48
2019-06-26T21:53:56.845Z,102608.00
2019-06-26T21:56:47.590Z,102595.20
2019-06-26T21:59:38.039Z,102613.36
2019-06-26T22:02:27.985Z,102610.27
2019-06-26T22:05:03.966Z,102608.77
2019-06-26T22:07:54.565Z,102607.72
2019-06-26T22:10:28.490Z,102610.09
2019-06-26T22:13:03.013Z,102600.59
2019-06-26T22:15:35.631Z,102609.84
2019-06-26T22:18:07.984Z,102601.85
2019-06-26T22:20:40.334Z,102608.19
2019-06-26T22:23:12.933Z,102613.52
2019-06-26T22:25:50.983Z,102615.81
2019-06-26T22:28:19.434Z,102618.80
2019-06-26T22:30:51.846Z,102621.69
2019-06-26T22:33:25.813Z,102620.13
2019-06-26T22:35:59.791Z,102618.47
2019-06-26T22:38:33.058Z,102619.55
2019-06-26T22:41:05.391Z,102623.73
2019-06-26T22:43:37.799Z,102630.44
2019-06-26T22:46:10.935Z,102626.72
2019-06-26T22:48:43.250Z,102633.27
2019-06-26T22:51:15.915Z,102632.41
2019-06-26T22:53:48.694Z,102631.75
2019-06-26T22:56:21.122Z,102632.80
2019-06-26T22:58:53.715Z,102630.39
2019-06-26T23:01:26.402Z,102634.06
2019-06-26T23:03:58.789Z,102628.69
2019-06-26T23:06:31.168Z,102640.35
2019-06-26T23:09:05.300Z,102639.80
2019-06-26T23:11:37.746Z,102644.63
2019-06-26T23:14:10.936Z,102640.48
2019-06-26T23:16:43.627Z,102645.88
2019-06-26T23:19:16.182Z,102644.00
2019-06-26T23:21:48.472Z,102644.82
2019-06-26T23:24:20.832Z,102645.54
2019-06-26T23:26:53.250Z,102640.91
2019-06-26T23:29:25.624Z,102643.05
2019-06-26T23:31:57.916Z,102640.90
2019-06-26T23:34:30.959Z,102642.38
2019-06-26T23:37:03.340Z,102641.41
2019-06-26T23:39:35.685Z,102645.16
2019-06-26T23:42:08.263Z,102645.06
2019-06-26T23:44:40.743Z,102645.33
2019-06-26T23:47:15.604Z,102642.98
2019-06-26T23:49:48.313Z,102643.95
2019-06-26T23:52:20.881Z,102643.33
2019-06-26T23:54:53.219Z,102647.97
2019-06-26T23:57:25.519Z,102642.83
2019-06-26T23:59:58.149Z,102640.85
